createdAt,value
2023-07-14T00:04:45.449Z,60.13
2023-07-14T00:14:48.536Z,61.75
2023-07-14T00:24:51.066Z,59.40
2023-07-14T00:34:54.172Z,59.93
2023-07-14T00:44:56.984Z,59.89
2023-07-14T00:54:59.716Z,59.00
2023-07-14T01:05:05.331Z,60.88
2023-07-14T01:15:09.101Z,57.91
2023-07-14T01:25:27.694Z,58.60
2023-07-14T01:35:34.061Z,60.19
2023-07-14T01:45:45.385Z,60.03
2023-07-14T01:55:49.181Z,57.30
2023-07-14T02:05:51.630Z,57.41
2023-07-14T02:15:54.746Z,57.33
2023-07-14T02:26:33.709Z,61.24
2023-07-14T02:36:54.693Z,61.57
2023-07-14T02:47:05.052Z,61.44
2023-07-14T02:57:07.816Z,62.33
2023-07-14T03:07:10.379Z,61.32
2023-07-14T03:17:13.328Z,62.05
2023-07-14T03:27:16.120Z,61.32
2023-07-14T03:37:18.767Z,61.53
2023-07-14T03:47:21.629Z,61.29
2023-07-14T03:57:24.314Z,62.25
2023-07-14T04:07:26.782Z,61.07
2023-07-14T04:17:30.787Z,60.67
2023-07-14T04:27:34.619Z,58.35
2023-07-14T04:37:37.142Z,57.12
2023-07-14T04:47:39.751Z,58.06
2023-07-14T04:57:42.456Z,56.32
2023-07-14T05:07:44.923Z,56.32
2023-07-14T05:17:47.594Z,55.19
2023-07-14T05:27:50.482Z,54.94
2023-07-14T05:37:54.909Z,53.06
2023-07-14T05:47:57.657Z,53.95
2023-07-14T05:58:00.160Z,54.87
2023-07-14T06:08:02.861Z,54.52
2023-07-14T06:18:05.451Z,55.12
2023-07-14T06:28:08.459Z,52.21
2023-07-14T06:38:11.625Z,52.78
2023-07-14T06:48:14.109Z,51.90
2023-07-14T06:58:16.507Z,52.35
2023-07-14T07:08:19.338Z,49.14
2023-07-14T07:18:27.154Z,49.57
2023-07-14T07:28:29.887Z,50.20
2023-07-14T07:38:32.292Z,48.23
2023-07-14T07:48:37.131Z,46.62
2023-07-14T07:58:40.335Z,45.60
2023-07-14T08:08:43.417Z,43.21
2023-07-14T08:18:45.895Z,43.50
2023-07-14T08:28:48.469Z,43.37
2023-07-14T08:38:51.317Z,41.90
2023-07-14T08:49:05.351Z,40.77
2023-07-14T08:59:15.147Z,41.54
2023-07-14T09:09:25.861Z,40.46
2023-07-14T09:19:52.939Z,37.56
2023-07-14T09:29:56.157Z,38.99
2023-07-14T09:40:24.551Z,39.22
2023-07-14T09:50:27.530Z,35.69
2023-07-14T10:00:40.506Z,35.61
2023-07-14T10:10:45.275Z,35.65
2023-07-14T10:21:07.369Z,34.86
2023-07-14T10:31:42.064Z,33.92
2023-07-14T10:41:48.449Z,34.05
2023-07-14T10:51:55.515Z,34.07
2023-07-14T11:02:01.434Z,33.44
2023-07-14T11:12:26.895Z,33.42
2023-07-14T11:22:34.426Z,32.44
2023-07-14T11:32:49.131Z,32.41
2023-07-14T11:42:56.047Z,32.47
2023-07-14T11:53:00.277Z,31.56
2023-07-14T12:03:11.367Z,32.39
2023-07-14T12:13:34.864Z,28.81
2023-07-14T12:23:37.830Z,30.09
2023-07-14T12:33:40.727Z,30.45
2023-07-14T12:43:45.169Z,29.20
2023-07-14T12:54:14.203Z,28.28
2023-07-14T13:04:18.186Z,29.49
2023-07-14T13:14:27.891Z,27.61
2023-07-14T13:24:33.373Z,29.16
2023-07-14T13:34:40.133Z,29.56
2023-07-14T13:44:50.017Z,29.06
2023-07-14T13:54:59.403Z,28.61
2023-07-14T14:05:02.080Z,28.36
2023-07-14T14:15:04.948Z,27.24
2023-07-14T14:25:20.886Z,28.24
2023-07-14T14:35:35.912Z,28.33
2023-07-14T14:45:38.376Z,27.25
2023-07-14T14:55:41.033Z,26.77
2023-07-14T15:05:46.036Z,27.73
2023-07-14T15:15:51.592Z,27.57
2023-07-14T15:25:55.514Z,27.34
2023-07-14T15:35:58.609Z,26.11
2023-07-14T15:46:02.994Z,25.73
2023-07-14T15:56:06.245Z,24.58
2023-07-14T16:06:18.134Z,25.31
2023-07-14T16:16:21.349Z,25.71
2023-07-14T16:26:25.769Z,27.23
2023-07-14T16:36:30.852Z,28.59
2023-07-14T16:46:58.270Z,27.37
2023-07-14T16:57:01.129Z,27.72
2023-07-14T17:07:04.357Z,27.88
2023-07-14T17:17:07.121Z,27.65
2023-07-14T17:27:19.074Z,28.59
2023-07-14T17:37:25.158Z,28.01
2023-07-14T17:47:27.869Z,28.01
2023-07-14T17:57:31.718Z,27.46
2023-07-14T18:07:34.266Z,27.01
2023-07-14T18:17:36.779Z,27.89
2023-07-14T18:27:39.538Z,28.57
2023-07-14T18:37:42.389Z,29.50
2023-07-14T18:47:45.018Z,30.36
2023-07-14T18:57:51.418Z,30.23
2023-07-14T19:07:54.596Z,29.96
2023-07-14T19:17:57.280Z,30.82
2023-07-14T19:28:00.191Z,31.16
2023-07-14T19:38:05.717Z,32.48
2023-07-14T19:48:23.092Z,33.36
2023-07-14T19:58:27.258Z,33.35
2023-07-14T20:08:30.183Z,33.62
2023-07-14T20:18:33.966Z,33.97
2023-07-14T20:28:37.843Z,33.94
2023-07-14T20:38:41.569Z,35.20
2023-07-14T20:48:44.038Z,34.10
2023-07-14T20:58:48.628Z,35.12
2023-07-14T21:08:52.444Z,35.21
2023-07-14T21:18:55.222Z,33.38
2023-07-14T21:28:59.922Z,34.23
2023-07-14T21:39:02.585Z,34.71
2023-07-14T21:49:13.157Z,34.00
2023-07-14T21:59:20.621Z,35.10
2023-07-14T22:09:23.304Z,35.47
2023-07-14T22:19:26.106Z,35.77
2023-07-14T22:29:28.728Z,36.08
2023-07-14T22:39:31.622Z,37.15
2023-07-14T22:49:34.241Z,36.91
2023-07-14T22:59:36.640Z,34.12
2023-07-14T23:09:39.134Z,32.69
2023-07-14T23:19:41.631Z,31.26
2023-07-14T23:29:44.076Z,30.77
2023-07-14T23:39:47.216Z,31.33
2023-07-14T23:49:49.644Z,30.49
2023-07-14T23:59:52.121Z,31.19
